sensor_id;sensor_type;location;lat;lon;timestamp;temperature;humidity
56103;DHT22;41970;48.774;9.280;2023-02-23T00:02:01;8.60;99.90
56103;DHT22;41970;48.774;9.280;2023-02-23T00:04:36;8.60;99.90
56103;DHT22;41970;48.774;9.280;2023-02-23T00:07:03;8.60;99.90
56103;DHT22;41970;48.774;9.280;2023-02-23T00:09:30;8.60;99.90
56103;DHT22;41970;48.774;9.280;2023-02-23T00:12:01;8.70;99.90
56103;DHT22;41970;48.774;9.280;2023-02-23T00:14:35;8.80;99.90
56103;DHT22;41970;48.774;9.280;2023-02-23T00:17:02;8.80;99.90
56103;DHT22;41970;48.774;9.280;2023-02-23T00:19:28;8.80;99.90
56103;DHT22;41970;48.774;9.280;2023-02-23T00:21:53;8.90;99.90
56103;DHT22;41970;48.774;9.280;2023-02-23T00:24:23;8.90;99.90
56103;DHT22;41970;48.774;9.280;2023-02-23T00:26:51;8.90;99.90
56103;DHT22;41970;48.774;9.280;2023-02-23T00:29:21;8.80;99.90
56103;DHT22;41970;48.774;9.280;2023-02-23T00:31:48;8.80;99.90
56103;DHT22;41970;48.774;9.280;2023-02-23T00:34:16;8.90;99.90
56103;DHT22;41970;48.774;9.280;2023-02-23T00:36:48;8.90;99.90
56103;DHT22;41970;48.774;9.280;2023-02-23T00:39:13;8.90;99.90
56103;DHT22;41970;48.774;9.280;2023-02-23T00:41:54;9.00;99.90
56103;DHT22;41970;48.774;9.280;2023-02-23T00:44:21;8.90;99.90
56103;DHT22;41970;48.774;9.280;2023-02-23T00:46:48;8.90;99.90
56103;DHT22;41970;48.774;9.280;2023-02-23T00:49:16;9.00;99.90
56103;DHT22;41970;48.774;9.280;2023-02-23T00:51:42;9.00;99.90
56103;DHT22;41970;48.774;9.280;2023-02-23T00:54:11;9.10;99.90
56103;DHT22;41970;48.774;9.280;2023-02-23T00:56:38;9.00;99.90
56103;DHT22;41970;48.774;9.280;2023-02-23T00:59:03;9.10;99.90
56103;DHT22;41970;48.774;9.280;2023-02-23T01:01:29;9.20;99.90
56103;DHT22;41970;48.774;9.280;2023-02-23T01:03:55;9.20;99.90
56103;DHT22;41970;48.774;9.280;2023-02-23T01:06:21;9.20;99.90
56103;DHT22;41970;48.774;9.280;2023-02-23T01:08:49;9.10;99.90
56103;DHT22;41970;48.774;9.280;2023-02-23T01:11:19;9.00;99.90
56103;DHT22;41970;48.774;9.280;2023-02-23T01:13:50;9.10;99.90
56103;DHT22;41970;48.774;9.280;2023-02-23T01:16:18;9.10;99.90
56103;DHT22;41970;48.774;9.280;2023-02-23T01:18:45;9.00;99.90
56103;DHT22;41970;48.774;9.280;2023-02-23T01:21:22;9.00;99.90
56103;DHT22;41970;48.774;9.280;2023-02-23T01:23:49;9.10;99.90
56103;DHT22;41970;48.774;9.280;2023-02-23T01:29:00;8.90;99.90
56103;DHT22;41970;48.774;9.280;2023-02-23T01:31:27;8.90;99.90
56103;DHT22;41970;48.774;9.280;2023-02-23T01:33:57;9.00;99.90
56103;DHT22;41970;48.774;9.280;2023-02-23T01:36:23;9.00;99.90
56103;DHT22;41970;48.774;9.280;2023-02-23T01:38:50;9.00;99.90
56103;DHT22;41970;48.774;9.280;2023-02-23T01:41:20;9.00;99.90
56103;DHT22;41970;48.774;9.280;2023-02-23T01:44:02;9.00;99.90
56103;DHT22;41970;48.774;9.280;2023-02-23T01:46:37;9.10;99.90
56103;DHT22;41970;48.774;9.280;2023-02-23T01:49:27;9.20;99.90
56103;DHT22;41970;48.774;9.280;2023-02-23T01:54:31;9.00;99.90
56103;DHT22;41970;48.774;9.280;2023-02-23T01:57:00;9.00;99.90
56103;DHT22;41970;48.774;9.280;2023-02-23T01:59:32;9.10;99.90
56103;DHT22;41970;48.774;9.280;2023-02-23T02:01:59;9.10;99.90
56103;DHT22;41970;48.774;9.280;2023-02-23T02:04:26;9.00;99.90
56103;DHT22;41970;48.774;9.280;2023-02-23T02:06:53;8.80;99.90
56103;DHT22;41970;48.774;9.280;2023-02-23T02:09:21;8.80;99.90
56103;DHT22;41970;48.774;9.280;2023-02-23T02:11:52;8.80;99.90
56103;DHT22;41970;48.774;9.280;2023-02-23T02:14:25;8.80;99.90
56103;DHT22;41970;48.774;9.280;2023-02-23T02:17:17;8.90;99.90
56103;DHT22;41970;48.774;9.280;2023-02-23T02:36:57;9.10;99.90
56103;DHT22;41970;48.774;9.280;2023-02-23T02:39:57;9.20;99.90
56103;DHT22;41970;48.774;9.280;2023-02-23T02:43:07;9.20;99.90
56103;DHT22;41970;48.774;9.280;2023-02-23T02:48:38;9.20;99.90
56103;DHT22;41970;48.774;9.280;2023-02-23T02:51:30;9.00;99.90
56103;DHT22;41970;48.774;9.280;2023-02-23T02:54:13;9.00;99.90
56103;DHT22;41970;48.774;9.280;2023-02-23T02:56:43;9.10;99.90
56103;DHT22;41970;48.774;9.280;2023-02-23T02:59:17;9.10;99.90
56103;DHT22;41970;48.774;9.280;2023-02-23T03:02:02;9.10;99.90
56103;DHT22;41970;48.774;9.280;2023-02-23T03:04:47;9.10;99.90
56103;DHT22;41970;48.774;9.280;2023-02-23T03:10:46;9.20;99.90
56103;DHT22;41970;48.774;9.280;2023-02-23T03:14:07;9.10;99.90
56103;DHT22;41970;48.774;9.280;2023-02-23T03:17:51;9.10;99.90
56103;DHT22;41970;48.774;9.280;2023-02-23T03:20:24;9.10;99.90
56103;DHT22;41970;48.774;9.280;2023-02-23T03:26:33;9.10;99.90
56103;DHT22;41970;48.774;9.280;2023-02-23T03:32:29;9.00;99.90
56103;DHT22;41970;48.774;9.280;2023-02-23T03:41:17;9.30;99.90
56103;DHT22;41970;48.774;9.280;2023-02-23T03:44:10;9.30;99.90
56103;DHT22;41970;48.774;9.280;2023-02-23T03:46:56;9.40;99.90
56103;DHT22;41970;48.774;9.280;2023-02-23T03:49:42;9.40;99.90
56103;DHT22;41970;48.774;9.280;2023-02-23T03:52:54;9.40;99.90
56103;DHT22;41970;48.774;9.280;2023-02-23T03:55:42;9.40;99.90
56103;DHT22;41970;48.774;9.280;2023-02-23T03:58:35;9.50;99.90
56103;DHT22;41970;48.774;9.280;2023-02-23T04:01:21;9.50;99.90
56103;DHT22;41970;48.774;9.280;2023-02-23T04:04:08;9.40;99.90
56103;DHT22;41970;48.774;9.280;2023-02-23T04:06:55;9.40;99.90
56103;DHT22;41970;48.774;9.280;2023-02-23T04:09:40;9.40;99.90
56103;DHT22;41970;48.774;9.280;2023-02-23T04:15:28;9.50;99.90
56103;DHT22;41970;48.774;9.280;2023-02-23T04:17:54;9.60;99.90
56103;DHT22;41970;48.774;9.280;2023-02-23T04:20:20;9.50;99.90
56103;DHT22;41970;48.774;9.280;2023-02-23T04:22:46;9.50;99.90
56103;DHT22;41970;48.774;9.280;2023-02-23T04:25:13;9.40;99.90
56103;DHT22;41970;48.774;9.280;2023-02-23T04:27:40;9.40;99.90
56103;DHT22;41970;48.774;9.280;2023-02-23T04:30:06;9.50;99.90
56103;DHT22;41970;48.774;9.280;2023-02-23T04:32:34;9.60;99.90
56103;DHT22;41970;48.774;9.280;2023-02-23T04:35:00;9.50;99.90
56103;DHT22;41970;48.774;9.280;2023-02-23T04:37:26;9.60;99.90
56103;DHT22;41970;48.774;9.280;2023-02-23T04:39:51;9.70;99.90
56103;DHT22;41970;48.774;9.280;2023-02-23T04:42:18;9.70;99.90
56103;DHT22;41970;48.774;9.280;2023-02-23T04:44:44;9.60;99.90
56103;DHT22;41970;48.774;9.280;2023-02-23T04:47:11;9.50;99.90
56103;DHT22;41970;48.774;9.280;2023-02-23T04:49:37;9.20;99.90
56103;DHT22;41970;48.774;9.280;2023-02-23T04:52:02;9.00;99.90
56103;DHT22;41970;48.774;9.280;2023-02-23T04:54:28;9.00;99.90
56103;DHT22;41970;48.774;9.280;2023-02-23T04:56:54;8.90;99.90
56103;DHT22;41970;48.774;9.280;2023-02-23T04:59:20;8.80;99.90
56103;DHT22;41970;48.774;9.280;2023-02-23T05:01:45;8.90;99.90
56103;DHT22;41970;48.774;9.280;2023-02-23T05:04:11;9.10;99.90
56103;DHT22;41970;48.774;9.280;2023-02-23T05:06:37;9.20;99.90
56103;DHT22;41970;48.774;9.280;2023-02-23T05:09:03;9.20;99.90
56103;DHT22;41970;48.774;9.280;2023-02-23T05:11:31;9.30;99.90
56103;DHT22;41970;48.774;9.280;2023-02-23T05:13:57;9.20;99.90
56103;DHT22;41970;48.774;9.280;2023-02-23T05:16:23;9.30;99.90
56103;DHT22;41970;48.774;9.280;2023-02-23T05:18:49;9.40;99.90
56103;DHT22;41970;48.774;9.280;2023-02-23T05:21:15;9.40;99.90
56103;DHT22;41970;48.774;9.280;2023-02-23T05:23:41;9.30;99.90
56103;DHT22;41970;48.774;9.280;2023-02-23T05:26:09;9.30;99.90
56103;DHT22;41970;48.774;9.280;2023-02-23T05:28:37;9.40;99.90
56103;DHT22;41970;48.774;9.280;2023-02-23T05:31:04;9.40;99.90
56103;DHT22;41970;48.774;9.280;2023-02-23T05:33:35;9.30;99.90
56103;DHT22;41970;48.774;9.280;2023-02-23T05:36:11;9.30;99.90
56103;DHT22;41970;48.774;9.280;2023-02-23T05:38:38;9.30;99.90
56103;DHT22;41970;48.774;9.280;2023-02-23T05:41:10;9.30;99.90
56103;DHT22;41970;48.774;9.280;2023-02-23T05:43:36;9.40;99.90
56103;DHT22;41970;48.774;9.280;2023-02-23T05:46:15;9.50;99.90
56103;DHT22;41970;48.774;9.280;2023-02-23T05:48:42;9.40;99.90
56103;DHT22;41970;48.774;9.280;2023-02-23T05:51:10;9.40;99.90
56103;DHT22;41970;48.774;9.280;2023-02-23T05:53:36;9.40;99.90
56103;DHT22;41970;48.774;9.280;2023-02-23T05:56:04;9.40;99.90
56103;DHT22;41970;48.774;9.280;2023-02-23T05:58:31;9.50;99.90
56103;DHT22;41970;48.774;9.280;2023-02-23T06:00:57;9.40;99.90
56103;DHT22;41970;48.774;9.280;2023-02-23T06:03:23;9.30;99.90
56103;DHT22;41970;48.774;9.280;2023-02-23T06:05:53;9.40;99.90
56103;DHT22;41970;48.774;9.280;2023-02-23T06:08:19;9.40;99.90
56103;DHT22;41970;48.774;9.280;2023-02-23T06:10:45;9.30;99.90
56103;DHT22;41970;48.774;9.280;2023-02-23T06:13:11;9.30;99.90
56103;DHT22;41970;48.774;9.280;2023-02-23T06:15:37;9.30;99.90
56103;DHT22;41970;48.774;9.280;2023-02-23T06:18:04;9.30;99.90
56103;DHT22;41970;48.774;9.280;2023-02-23T06:20:30;9.30;99.90
56103;DHT22;41970;48.774;9.280;2023-02-23T06:22:56;9.40;99.90
56103;DHT22;41970;48.774;9.280;2023-02-23T06:25:22;9.40;99.90
56103;DHT22;41970;48.774;9.280;2023-02-23T06:27:48;9.50;99.90
56103;DHT22;41970;48.774;9.280;2023-02-23T06:30:14;9.40;99.90
56103;DHT22;41970;48.774;9.280;2023-02-23T06:32:40;9.40;99.90
56103;DHT22;41970;48.774;9.280;2023-02-23T06:35:06;9.40;99.90
56103;DHT22;41970;48.774;9.280;2023-02-23T06:37:33;9.40;99.90
56103;DHT22;41970;48.774;9.280;2023-02-23T06:39:59;9.30;99.90
56103;DHT22;41970;48.774;9.280;2023-02-23T06:42:25;9.30;99.90
56103;DHT22;41970;48.774;9.280;2023-02-23T06:44:51;9.40;99.90
56103;DHT22;41970;48.774;9.280;2023-02-23T06:47:17;9.40;99.90
56103;DHT22;41970;48.774;9.280;2023-02-23T06:49:43;9.50;99.90
56103;DHT22;41970;48.774;9.280;2023-02-23T06:52:09;9.50;99.90
56103;DHT22;41970;48.774;9.280;2023-02-23T06:54:38;9.50;99.90
56103;DHT22;41970;48.774;9.280;2023-02-23T06:57:05;9.50;99.90
56103;DHT22;41970;48.774;9.280;2023-02-23T06:59:31;9.40;99.90
56103;DHT22;41970;48.774;9.280;2023-02-23T07:01:57;9.40;99.90
56103;DHT22;41970;48.774;9.280;2023-02-23T07:04:22;9.50;99.90
56103;DHT22;41970;48.774;9.280;2023-02-23T07:06:48;9.50;99.90
56103;DHT22;41970;48.774;9.280;2023-02-23T07:09:14;9.50;99.90
56103;DHT22;41970;48.774;9.280;2023-02-23T07:11:40;9.60;99.90
56103;DHT22;41970;48.774;9.280;2023-02-23T07:14:09;9.60;99.90
56103;DHT22;41970;48.774;9.280;2023-02-23T07:16:36;9.60;99.90
56103;DHT22;41970;48.774;9.280;2023-02-23T07:19:03;9.60;99.90
56103;DHT22;41970;48.774;9.280;2023-02-23T07:21:30;9.60;99.90
56103;DHT22;41970;48.774;9.280;2023-02-23T07:23:59;9.70;99.90
56103;DHT22;41970;48.774;9.280;2023-02-23T07:26:26;9.60;99.90
56103;DHT22;41970;48.774;9.280;2023-02-23T07:28:51;9.60;99.90
56103;DHT22;41970;48.774;9.280;2023-02-23T07:31:18;9.50;99.90
56103;DHT22;41970;48.774;9.280;2023-02-23T07:33:44;9.50;99.90
56103;DHT22;41970;48.774;9.280;2023-02-23T07:36:10;9.60;99.90
56103;DHT22;41970;48.774;9.280;2023-02-23T07:38:36;9.70;99.90
56103;DHT22;41970;48.774;9.280;2023-02-23T07:41:02;9.70;99.90
56103;DHT22;41970;48.774;9.280;2023-02-23T07:43:28;9.70;99.90
56103;DHT22;41970;48.774;9.280;2023-02-23T07:45:58;9.70;99.90
56103;DHT22;41970;48.774;9.280;2023-02-23T07:48:24;9.80;99.90
56103;DHT22;41970;48.774;9.280;2023-02-23T07:50:49;9.80;99.90
56103;DHT22;41970;48.774;9.280;2023-02-23T07:53:15;9.90;99.90
56103;DHT22;41970;48.774;9.280;2023-02-23T07:55:42;9.80;99.90
56103;DHT22;41970;48.774;9.280;2023-02-23T07:58:07;9.90;99.90
56103;DHT22;41970;48.774;9.280;2023-02-23T08:00:34;9.90;99.90
56103;DHT22;41970;48.774;9.280;2023-02-23T08:03:01;9.90;99.90
56103;DHT22;41970;48.774;9.280;2023-02-23T08:05:27;10.00;99.90
56103;DHT22;41970;48.774;9.280;2023-02-23T08:07:54;10.20;99.90
56103;DHT22;41970;48.774;9.280;2023-02-23T08:10:21;10.20;99.90
56103;DHT22;41970;48.774;9.280;2023-02-23T08:12:47;10.30;99.90
56103;DHT22;41970;48.774;9.280;2023-02-23T08:15:12;10.40;99.90
56103;DHT22;41970;48.774;9.280;2023-02-23T08:17:39;10.50;99.90
56103;DHT22;41970;48.774;9.280;2023-02-23T08:20:06;10.60;99.90
56103;DHT22;41970;48.774;9.280;2023-02-23T08:22:32;10.70;99.90
56103;DHT22;41970;48.774;9.280;2023-02-23T08:24:58;10.70;99.90
56103;DHT22;41970;48.774;9.280;2023-02-23T08:27:24;10.80;99.90
56103;DHT22;41970;48.774;9.280;2023-02-23T08:29:50;10.70;99.90
56103;DHT22;41970;48.774;9.280;2023-02-23T08:32:19;10.60;99.90
56103;DHT22;41970;48.774;9.280;2023-02-23T08:34:45;10.40;99.90
56103;DHT22;41970;48.774;9.280;2023-02-23T08:37:11;10.40;99.90
56103;DHT22;41970;48.774;9.280;2023-02-23T08:39:37;10.40;99.90
56103;DHT22;41970;48.774;9.280;2023-02-23T08:42:03;10.60;99.90
56103;DHT22;41970;48.774;9.280;2023-02-23T08:44:29;10.70;99.90
56103;DHT22;41970;48.774;9.280;2023-02-23T08:46:55;10.80;99.90
56103;DHT22;41970;48.774;9.280;2023-02-23T08:49:23;10.80;99.90
56103;DHT22;41970;48.774;9.280;2023-02-23T08:51:49;10.80;99.90
56103;DHT22;41970;48.774;9.280;2023-02-23T08:54:15;10.90;99.90
56103;DHT22;41970;48.774;9.280;2023-02-23T08:56:42;10.90;99.90
56103;DHT22;41970;48.774;9.280;2023-02-23T08:59:13;11.00;99.90
56103;DHT22;41970;48.774;9.280;2023-02-23T09:01:39;10.70;99.90
56103;DHT22;41970;48.774;9.280;2023-02-23T09:04:07;10.70;99.90
56103;DHT22;41970;48.774;9.280;2023-02-23T09:06:32;10.80;99.90
56103;DHT22;41970;48.774;9.280;2023-02-23T09:08:59;10.90;99.90
56103;DHT22;41970;48.774;9.280;2023-02-23T09:11:25;10.70;99.90
56103;DHT22;41970;48.774;9.280;2023-02-23T09:13:51;10.60;99.90
56103;DHT22;41970;48.774;9.280;2023-02-23T09:16:17;10.60;99.90
56103;DHT22;41970;48.774;9.280;2023-02-23T09:18:43;10.50;99.90
56103;DHT22;41970;48.774;9.280;2023-02-23T09:21:15;10.70;99.90
56103;DHT22;41970;48.774;9.280;2023-02-23T09:23:45;10.90;99.90
56103;DHT22;41970;48.774;9.280;2023-02-23T09:26:12;10.90;99.90
56103;DHT22;41970;48.774;9.280;2023-02-23T09:28:38;10.80;99.90
56103;DHT22;41970;48.774;9.280;2023-02-23T09:31:07;10.80;99.90
56103;DHT22;41970;48.774;9.280;2023-02-23T09:33:34;10.70;99.90
56103;DHT22;41970;48.774;9.280;2023-02-23T09:36:05;10.50;99.90
56103;DHT22;41970;48.774;9.280;2023-02-23T09:38:31;10.60;99.90
56103;DHT22;41970;48.774;9.280;2023-02-23T09:40:56;10.80;99.90
56103;DHT22;41970;48.774;9.280;2023-02-23T09:46:09;11.00;99.90
56103;DHT22;41970;48.774;9.280;2023-02-23T09:48:37;11.20;99.90
56103;DHT22;41970;48.774;9.280;2023-02-23T09:51:05;11.20;99.90
56103;DHT22;41970;48.774;9.280;2023-02-23T09:53:37;11.20;99.90
56103;DHT22;41970;48.774;9.280;2023-02-23T09:58:47;11.30;99.90
56103;DHT22;41970;48.774;9.280;2023-02-23T10:03:56;11.10;99.90
56103;DHT22;41970;48.774;9.280;2023-02-23T10:06:24;10.90;99.90
56103;DHT22;41970;48.774;9.280;2023-02-23T10:19:49;11.80;99.90
56103;DHT22;41970;48.774;9.280;2023-02-23T10:22:18;12.20;99.90
56103;DHT22;41970;48.774;9.280;2023-02-23T10:24:54;12.30;99.90
56103;DHT22;41970;48.774;9.280;2023-02-23T10:27:24;12.50;99.90
56103;DHT22;41970;48.774;9.280;2023-02-23T10:29:55;12.70;99.90
56103;DHT22;41970;48.774;9.280;2023-02-23T10:34:55;12.90;99.90
56103;DHT22;41970;48.774;9.280;2023-02-23T10:37:22;13.10;99.90
56103;DHT22;41970;48.774;9.280;2023-02-23T10:39:49;13.00;99.90
56103;DHT22;41970;48.774;9.280;2023-02-23T10:42:26;13.10;99.90
56103;DHT22;41970;48.774;9.280;2023-02-23T10:44:57;13.20;99.90
56103;DHT22;41970;48.774;9.280;2023-02-23T10:47:30;13.30;99.90
56103;DHT22;41970;48.774;9.280;2023-02-23T10:49:58;13.40;99.90
56103;DHT22;41970;48.774;9.280;2023-02-23T10:54:53;13.40;99.90
56103;DHT22;41970;48.774;9.280;2023-02-23T10:57:32;13.40;99.90
56103;DHT22;41970;48.774;9.280;2023-02-23T11:02:29;13.20;99.90
56103;DHT22;41970;48.774;9.280;2023-02-23T11:04:59;13.30;99.90
56103;DHT22;41970;48.774;9.280;2023-02-23T11:07:30;13.40;99.90
56103;DHT22;41970;48.774;9.280;2023-02-23T11:09:58;13.00;99.90
56103;DHT22;41970;48.774;9.280;2023-02-23T11:12:38;13.10;99.90
56103;DHT22;41970;48.774;9.280;2023-02-23T11:15:26;12.90;99.90
56103;DHT22;41970;48.774;9.280;2023-02-23T11:17:56;12.70;99.90
56103;DHT22;41970;48.774;9.280;2023-02-23T11:20:40;12.80;99.90
56103;DHT22;41970;48.774;9.280;2023-02-23T11:23:24;12.70;99.90
56103;DHT22;41970;48.774;9.280;2023-02-23T11:25:58;12.90;99.90
56103;DHT22;41970;48.774;9.280;2023-02-23T11:28:36;12.80;99.90
56103;DHT22;41970;48.774;9.280;2023-02-23T11:33:39;12.80;99.90
56103;DHT22;41970;48.774;9.280;2023-02-23T11:38:45;13.10;99.90
56103;DHT22;41970;48.774;9.280;2023-02-23T11:41:21;13.30;99.90
56103;DHT22;41970;48.774;9.280;2023-02-23T11:43:58;13.40;99.90
56103;DHT22;41970;48.774;9.280;2023-02-23T11:46:25;13.40;99.90
56103;DHT22;41970;48.774;9.280;2023-02-23T11:48:53;13.60;99.90
56103;DHT22;41970;48.774;9.280;2023-02-23T11:51:32;13.60;99.90
56103;DHT22;41970;48.774;9.280;2023-02-23T11:53:59;13.50;99.90
56103;DHT22;41970;48.774;9.280;2023-02-23T11:56:28;13.50;99.90
56103;DHT22;41970;48.774;9.280;2023-02-23T11:59:02;13.70;99.90
56103;DHT22;41970;48.774;9.280;2023-02-23T12:01:48;13.70;99.90
56103;DHT22;41970;48.774;9.280;2023-02-23T12:04:45;13.80;99.90
56103;DHT22;41970;48.774;9.280;2023-02-23T12:23:44;14.00;99.90
56103;DHT22;41970;48.774;9.280;2023-02-23T12:26:21;13.90;99.90
56103;DHT22;41970;48.774;9.280;2023-02-23T12:28:58;13.90;99.90
56103;DHT22;41970;48.774;9.280;2023-02-23T12:31:46;13.80;99.90
56103;DHT22;41970;48.774;9.280;2023-02-23T12:34:20;13.80;99.90
56103;DHT22;41970;48.774;9.280;2023-02-23T12:39:40;13.90;99.90
56103;DHT22;41970;48.774;9.280;2023-02-23T12:42:24;13.90;99.90
56103;DHT22;41970;48.774;9.280;2023-02-23T12:45:02;13.90;99.90
56103;DHT22;41970;48.774;9.280;2023-02-23T12:47:43;13.80;99.90
56103;DHT22;41970;48.774;9.280;2023-02-23T12:52:53;13.70;99.90
56103;DHT22;41970;48.774;9.280;2023-02-23T12:58:34;13.70;99.90
56103;DHT22;41970;48.774;9.280;2023-02-23T13:01:58;13.70;99.90
56103;DHT22;41970;48.774;9.280;2023-02-23T13:07:19;13.70;99.90
56103;DHT22;41970;48.774;9.280;2023-02-23T13:20:45;13.70;99.90
56103;DHT22;41970;48.774;9.280;2023-02-23T13:28:28;13.80;99.90
56103;DHT22;41970;48.774;9.280;2023-02-23T13:30:57;13.80;99.90
56103;DHT22;41970;48.774;9.280;2023-02-23T13:33:28;13.90;99.90
56103;DHT22;41970;48.774;9.280;2023-02-23T13:36:01;13.80;99.90
56103;DHT22;41970;48.774;9.280;2023-02-23T13:38:46;13.50;99.90
56103;DHT22;41970;48.774;9.280;2023-02-23T13:44:02;13.20;99.90
56103;DHT22;41970;48.774;9.280;2023-02-23T13:46:52;13.30;99.90
56103;DHT22;41970;48.774;9.280;2023-02-23T13:52:36;13.50;99.90
56103;DHT22;41970;48.774;9.280;2023-02-23T13:57:54;13.70;99.90
56103;DHT22;41970;48.774;9.280;2023-02-23T14:00:23;13.70;99.90
56103;DHT22;41970;48.774;9.280;2023-02-23T14:02:49;13.80;99.90
56103;DHT22;41970;48.774;9.280;2023-02-23T14:05:25;13.80;99.90
56103;DHT22;41970;48.774;9.280;2023-02-23T14:08:01;13.70;99.90
56103;DHT22;41970;48.774;9.280;2023-02-23T14:20:48;13.70;99.90
56103;DHT22;41970;48.774;9.280;2023-02-23T14:37:25;13.60;99.90
56103;DHT22;41970;48.774;9.280;2023-02-23T14:40:21;13.50;99.90
56103;DHT22;41970;48.774;9.280;2023-02-23T14:42:49;13.40;99.90
56103;DHT22;41970;48.774;9.280;2023-02-23T14:45:30;13.50;99.90
56103;DHT22;41970;48.774;9.280;2023-02-23T14:48:10;13.60;99.90
56103;DHT22;41970;48.774;9.280;2023-02-23T14:50:42;13.50;99.90
56103;DHT22;41970;48.774;9.280;2023-02-23T14:53:28;13.50;99.90
56103;DHT22;41970;48.774;9.280;2023-02-23T14:55:57;13.50;99.90
56103;DHT22;41970;48.774;9.280;2023-02-23T14:58:27;13.60;99.90
56103;DHT22;41970;48.774;9.280;2023-02-23T15:00:54;13.70;99.90
56103;DHT22;41970;48.774;9.280;2023-02-23T15:03:20;13.80;99.90
56103;DHT22;41970;48.774;9.280;2023-02-23T15:05:56;13.80;99.90
56103;DHT22;41970;48.774;9.280;2023-02-23T15:08:26;13.80;99.90
56103;DHT22;41970;48.774;9.280;2023-02-23T15:11:03;13.80;99.90
56103;DHT22;41970;48.774;9.280;2023-02-23T15:13:36;13.80;99.90
56103;DHT22;41970;48.774;9.280;2023-02-23T15:19:32;13.70;99.90
56103;DHT22;41970;48.774;9.280;2023-02-23T15:22:00;13.70;99.90
56103;DHT22;41970;48.774;9.280;2023-02-23T15:24:31;13.70;99.90
56103;DHT22;41970;48.774;9.280;2023-02-23T15:26:57;13.80;99.90
56103;DHT22;41970;48.774;9.280;2023-02-23T15:29:31;13.80;99.90
56103;DHT22;41970;48.774;9.280;2023-02-23T15:32:16;13.80;99.90
56103;DHT22;41970;48.774;9.280;2023-02-23T15:34:42;13.80;99.90
56103;DHT22;41970;48.774;9.280;2023-02-23T15:37:38;13.70;99.90
56103;DHT22;41970;48.774;9.280;2023-02-23T15:40:11;13.80;99.90
56103;DHT22;41970;48.774;9.280;2023-02-23T15:42:46;13.70;99.90
56103;DHT22;41970;48.774;9.280;2023-02-23T15:45:41;13.60;99.90
56103;DHT22;41970;48.774;9.280;2023-02-23T15:48:15;13.60;99.90
56103;DHT22;41970;48.774;9.280;2023-02-23T15:50:45;13.60;99.90
56103;DHT22;41970;48.774;9.280;2023-02-23T15:53:35;13.60;99.90
56103;DHT22;41970;48.774;9.280;2023-02-23T15:56:26;13.70;99.90
56103;DHT22;41970;48.774;9.280;2023-02-23T15:58:56;13.60;99.90
56103;DHT22;41970;48.774;9.280;2023-02-23T16:01:23;13.50;99.90
56103;DHT22;41970;48.774;9.280;2023-02-23T16:04:06;13.40;99.90
56103;DHT22;41970;48.774;9.280;2023-02-23T16:06:55;13.40;99.90
56103;DHT22;41970;48.774;9.280;2023-02-23T16:09:30;13.40;99.90
56103;DHT22;41970;48.774;9.280;2023-02-23T16:12:02;13.40;99.90
56103;DHT22;41970;48.774;9.280;2023-02-23T16:14:43;13.40;99.90
56103;DHT22;41970;48.774;9.280;2023-02-23T16:17:27;13.40;99.90
56103;DHT22;41970;48.774;9.280;2023-02-23T16:22:43;13.20;99.90
56103;DHT22;41970;48.774;9.280;2023-02-23T16:25:14;13.20;99.90
56103;DHT22;41970;48.774;9.280;2023-02-23T16:27:42;13.20;99.90
56103;DHT22;41970;48.774;9.280;2023-02-23T16:30:22;13.20;99.90
56103;DHT22;41970;48.774;9.280;2023-02-23T16:33:05;13.20;99.90
56103;DHT22;41970;48.774;9.280;2023-02-23T16:35:43;13.10;99.90
56103;DHT22;41970;48.774;9.280;2023-02-23T16:38:34;13.10;99.90
56103;DHT22;41970;48.774;9.280;2023-02-23T16:41:05;13.10;99.90
56103;DHT22;41970;48.774;9.280;2023-02-23T16:43:33;13.00;99.90
56103;DHT22;41970;48.774;9.280;2023-02-23T16:46:00;13.00;99.90
56103;DHT22;41970;48.774;9.280;2023-02-23T16:48:26;13.10;99.90
56103;DHT22;41970;48.774;9.280;2023-02-23T16:50:52;13.00;99.90
56103;DHT22;41970;48.774;9.280;2023-02-23T16:53:17;13.00;99.90
56103;DHT22;41970;48.774;9.280;2023-02-23T16:55:51;13.00;99.90
56103;DHT22;41970;48.774;9.280;2023-02-23T16:58:22;13.00;99.90
56103;DHT22;41970;48.774;9.280;2023-02-23T17:00:50;13.00;99.90
56103;DHT22;41970;48.774;9.280;2023-02-23T17:03:22;13.00;99.90
56103;DHT22;41970;48.774;9.280;2023-02-23T17:05:48;13.00;99.90
56103;DHT22;41970;48.774;9.280;2023-02-23T17:08:14;12.90;99.90
56103;DHT22;41970;48.774;9.280;2023-02-23T17:10:41;13.00;99.90
56103;DHT22;41970;48.774;9.280;2023-02-23T17:13:18;13.00;99.90
56103;DHT22;41970;48.774;9.280;2023-02-23T17:15:45;13.00;99.90
56103;DHT22;41970;48.774;9.280;2023-02-23T17:18:15;12.90;99.90
56103;DHT22;41970;48.774;9.280;2023-02-23T17:20:41;12.80;99.90
56103;DHT22;41970;48.774;9.280;2023-02-23T17:23:07;12.80;99.90
56103;DHT22;41970;48.774;9.280;2023-02-23T17:25:33;12.80;99.90
56103;DHT22;41970;48.774;9.280;2023-02-23T17:27:59;12.80;99.90
56103;DHT22;41970;48.774;9.280;2023-02-23T17:30:26;12.90;99.90
56103;DHT22;41970;48.774;9.280;2023-02-23T17:32:54;12.90;99.90
56103;DHT22;41970;48.774;9.280;2023-02-23T17:35:21;12.90;99.90
56103;DHT22;41970;48.774;9.280;2023-02-23T17:37:46;12.90;99.90
56103;DHT22;41970;48.774;9.280;2023-02-23T17:40:15;12.90;99.90
56103;DHT22;41970;48.774;9.280;2023-02-23T17:42:41;12.90;99.90
56103;DHT22;41970;48.774;9.280;2023-02-23T17:45:08;12.90;99.90
56103;DHT22;41970;48.774;9.280;2023-02-23T17:47:35;12.90;99.90
56103;DHT22;41970;48.774;9.280;2023-02-23T17:50:04;12.90;99.90
56103;DHT22;41970;48.774;9.280;2023-02-23T17:52:30;12.90;99.90
56103;DHT22;41970;48.774;9.280;2023-02-23T17:54:56;12.90;99.90
56103;DHT22;41970;48.774;9.280;2023-02-23T17:57:23;12.80;99.90
56103;DHT22;41970;48.774;9.280;2023-02-23T17:59:49;12.80;99.90
56103;DHT22;41970;48.774;9.280;2023-02-23T18:02:18;12.80;99.90
56103;DHT22;41970;48.774;9.280;2023-02-23T18:04:46;12.70;99.90
56103;DHT22;41970;48.774;9.280;2023-02-23T18:07:12;12.70;99.90
56103;DHT22;41970;48.774;9.280;2023-02-23T18:09:38;12.70;99.90
56103;DHT22;41970;48.774;9.280;2023-02-23T18:12:04;12.70;99.90
56103;DHT22;41970;48.774;9.280;2023-02-23T18:14:30;12.70;99.90
56103;DHT22;41970;48.774;9.280;2023-02-23T18:16:56;12.60;99.90
56103;DHT22;41970;48.774;9.280;2023-02-23T18:19:22;12.60;99.90
56103;DHT22;41970;48.774;9.280;2023-02-23T18:21:48;12.60;99.90
56103;DHT22;41970;48.774;9.280;2023-02-23T18:24:14;12.60;99.90
56103;DHT22;41970;48.774;9.280;2023-02-23T18:26:40;12.60;99.90
56103;DHT22;41970;48.774;9.280;2023-02-23T18:29:06;12.50;99.90
56103;DHT22;41970;48.774;9.280;2023-02-23T18:31:32;12.50;99.90
56103;DHT22;41970;48.774;9.280;2023-02-23T18:33:59;12.40;99.90
56103;DHT22;41970;48.774;9.280;2023-02-23T18:36:34;12.40;99.90
56103;DHT22;41970;48.774;9.280;2023-02-23T18:39:01;12.40;99.90
56103;DHT22;41970;48.774;9.280;2023-02-23T18:41:27;12.50;99.90
56103;DHT22;41970;48.774;9.280;2023-02-23T18:43:56;12.40;99.90